createdAt,value
2018-11-11T00:04:36.065Z,82.6
2018-11-11T00:19:49.748Z,82.7
2018-11-11T00:35:03.071Z,82.5
2018-11-11T00:50:12.697Z,82.4
2018-11-11T01:05:30.288Z,82
2018-11-11T01:20:43.820Z,82
2018-11-11T01:35:57.502Z,82.3
2018-11-11T01:51:10.995Z,81.9
2018-11-11T02:06:24.993Z,82.4
2018-11-11T02:21:38.792Z,82.6
2018-11-11T02:36:52.455Z,82.6
2018-11-11T02:52:05.255Z,79.7
2018-11-11T03:07:14.841Z,79
2018-11-11T03:22:32.975Z,79.3
2018-11-11T03:37:44.396Z,80.1
2018-11-11T03:52:57.581Z,80.5
2018-11-11T04:08:00.688Z,82.6
2018-11-11T04:23:23.598Z,84.2
2018-11-11T04:38:36.713Z,85.5
2018-11-11T04:53:49.691Z,85.3
2018-11-11T05:09:03.101Z,85.2
2018-11-11T05:24:14.096Z,85.8
2018-11-11T05:39:30.346Z,85.5
2018-11-11T05:54:42.786Z,84.2
2018-11-11T06:09:56.464Z,84.1
2018-11-11T06:25:00.882Z,84.1
2018-11-11T06:40:23.349Z,83.9
2018-11-11T06:55:38.472Z,84.2
2018-11-11T07:10:51.293Z,83.6
2018-11-11T07:26:04.167Z,83.1
2018-11-11T07:41:15.987Z,82.5
2018-11-11T07:56:31.900Z,82.3
2018-11-11T08:11:46.074Z,80.8
2018-11-11T08:27:00.114Z,78.8
2018-11-11T08:42:05.149Z,77.5
2018-11-11T08:57:28.873Z,76.1
2018-11-11T09:12:43.699Z,76.1
2018-11-11T09:27:58.403Z,73.9
2018-11-11T09:43:12.564Z,73.2
2018-11-11T09:58:24.344Z,70
2018-11-11T10:13:42.966Z,66.1
2018-11-11T10:28:59.434Z,63.6
2018-11-11T10:44:15.807Z,62.5
2018-11-11T10:59:30.413Z,68.9
2018-11-11T11:14:52.022Z,64
2018-11-11T11:30:02.865Z,65.2
2018-11-11T11:45:17.146Z,65.9
2018-11-11T12:00:34.592Z,65
2018-11-11T12:15:41.823Z,63.6
2018-11-11T12:31:09.513Z,57.7
2018-11-11T12:46:21.302Z,53.9
2018-11-11T13:01:40.676Z,47.9
2018-11-11T13:17:00.469Z,45.2
2018-11-11T13:32:20.983Z,42.7
2018-11-11T13:47:31.227Z,41.6
2018-11-11T14:03:01.108Z,41
2018-11-11T14:18:21.890Z,41.8
2018-11-11T14:33:40.656Z,43.2
2018-11-11T14:49:00.144Z,42.9
2018-11-11T15:04:18.519Z,47.1
2018-11-11T15:19:27.794Z,54.1
2018-11-11T15:34:51.188Z,58.8
2018-11-11T15:50:06.894Z,62.9
2018-11-11T16:05:22.197Z,67.7
2018-11-11T16:20:37.011Z,67.3
2018-11-11T16:35:47.273Z,68.7
2018-11-11T16:51:06.457Z,70.5
2018-11-11T17:06:20.879Z,72.4
2018-11-11T17:21:35.669Z,74.2
2018-11-11T17:36:49.844Z,76.1
2018-11-11T17:52:04.026Z,77.7
2018-11-11T18:07:18.337Z,79
2018-11-11T18:22:32.379Z,79.4
2018-11-11T18:37:48.366Z,80.2
2018-11-11T18:52:55.633Z,80.8
2018-11-11T19:08:15.205Z,88.2
2018-11-11T19:23:29.570Z,90.4
2018-11-11T19:39:20.499Z,89.9
2018-11-11T19:54:50.771Z,87.2
2018-11-11T20:10:09.952Z,85
2018-11-11T20:25:24.154Z,87
2018-11-11T20:40:38.849Z,82.2
2018-11-11T20:55:42.038Z,82.8
2018-11-11T21:11:07.995Z,83.3
2018-11-11T21:26:22.600Z,83.5
2018-11-11T21:41:36.917Z,83.3
2018-11-11T21:56:51.265Z,83.3
2018-11-11T22:12:03.598Z,85.1
2018-11-11T22:27:19.635Z,85.8
2018-11-11T22:42:34.257Z,87.5
2018-11-11T22:57:48.643Z,84
2018-11-11T23:12:55.706Z,78.8
2018-11-11T23:28:17.214Z,80.3
2018-11-11T23:43:31.280Z,82
2018-11-11T23:58:45.480Z,83.7
